Time;durP1;ratioP1;P1;durP2;ratioP2;P2;SDS_P1;SDS_P2;PMS_P1;PMS_P2;Temp;Humidity;BMP_temperature;BMP_pressure;BME280_temperature;BME280_humidity;BME280_pressure;Samples;Min_cycle;Max_cycle;Signal;HPM_P1;HPM_P2
2023/12/02 00:01:52;;;;;;;27.30;13.07;;;-0.30;99.90;;;;;;5033166;28;20095;-52
2023/12/02 00:04:18;;;;;;;26.17;12.07;;;0.10;99.90;;;;;;5033988;28;20033;-50
2023/12/02 00:06:44;;;;;;;31.88;12.25;;;0.20;99.90;;;;;;5031599;28;20099;-48
2023/12/02 00:09:10;;;;;;;26.08;11.35;;;-0.20;99.90;;;;;;5033181;28;20053;-48
2023/12/02 00:11:36;;;;;;;29.63;12.30;;;0.10;99.90;;;;;;5032900;28;20107;-51
2023/12/02 00:14:02;;;;;;;28.33;12.43;;;0.10;99.90;;;;;;5031664;28;20091;-50
2023/12/02 00:16:28;;;;;;;25.70;11.88;;;0.00;99.90;;;;;;5031783;28;20049;-51
2023/12/02 00:18:54;;;;;;;26.35;11.95;;;0.00;99.90;;;;;;5031687;28;20033;-50
2023/12/02 00:21:20;;;;;;;32.78;12.77;;;-0.20;99.90;;;;;;5030837;28;20038;-51
2023/12/02 00:23:46;;;;;;;30.33;12.82;;;-0.30;99.90;;;;;;5032145;28;20091;-49
2023/12/02 00:26:11;;;;;;;31.05;12.55;;;-0.10;99.90;;;;;;5032767;28;20041;-52
2023/12/02 00:28:37;;;;;;;29.60;12.43;;;0.00;99.90;;;;;;5033230;28;20124;-50
2023/12/02 00:31:03;;;;;;;31.42;13.52;;;0.10;99.90;;;;;;5030144;28;20041;-53
2023/12/02 00:33:29;;;;;;;30.27;12.93;;;0.10;99.90;;;;;;5032650;28;20485;-50
2023/12/02 00:35:55;;;;;;;29.92;13.27;;;-0.30;99.90;;;;;;5014971;28;20089;-48
2023/12/02 00:38:21;;;;;;;30.52;13.02;;;-0.10;99.90;;;;;;5030323;28;20119;-52
2023/12/02 00:40:47;;;;;;;31.25;12.38;;;0.40;99.90;;;;;;5011901;28;20038;-48
2023/12/02 00:43:12;;;;;;;33.65;12.55;;;-0.30;99.90;;;;;;5031833;28;20034;-49
2023/12/02 00:45:39;;;;;;;31.65;12.45;;;-0.10;99.90;;;;;;5030984;28;20041;-53
2023/12/02 00:48:04;;;;;;;30.10;13.13;;;-0.20;99.90;;;;;;5032211;28;20475;-48
2023/12/02 00:50:30;;;;;;;33.80;12.75;;;-0.10;99.90;;;;;;5032392;28;20038;-49
2023/12/02 00:52:56;;;;;;;30.67;12.82;;;-0.20;99.90;;;;;;5032531;28;20163;-50
2023/12/02 00:55:22;;;;;;;28.13;12.35;;;-0.20;99.90;;;;;;5032592;28;20052;-50
2023/12/02 00:57:49;;;;;;;31.17;13.32;;;-0.20;99.90;;;;;;5032494;28;20416;-52
2023/12/02 01:00:15;;;;;;;30.83;13.23;;;0.20;99.90;;;;;;5032274;28;20465;-52
2023/12/02 01:02:41;;;;;;;27.92;12.07;;;-0.10;99.90;;;;;;5032564;28;20068;-48
2023/12/02 01:05:08;;;;;;;32.72;13.30;;;0.10;99.90;;;;;;5032650;28;20089;-50
2023/12/02 01:07:34;;;;;;;29.10;12.30;;;-0.20;99.90;;;;;;5030716;28;20044;-50
2023/12/02 01:10:00;;;;;;;31.80;12.65;;;0.00;99.90;;;;;;5032052;28;20029;-53
2023/12/02 01:12:25;;;;;;;30.15;13.05;;;0.20;99.90;;;;;;5032029;28;20087;-51
2023/12/02 01:14:51;;;;;;;28.70;12.32;;;0.00;99.90;;;;;;5032161;28;20045;-52
2023/12/02 01:17:17;;;;;;;31.98;13.18;;;0.10;99.90;;;;;;5028505;28;20045;-48
2023/12/02 01:19:44;;;;;;;30.00;13.05;;;-0.20;99.90;;;;;;5031997;28;20052;-49
2023/12/02 01:22:10;;;;;;;29.80;12.90;;;-0.10;99.90;;;;;;5031564;28;20113;-53
2023/12/02 01:24:36;;;;;;;30.30;12.60;;;0.10;99.90;;;;;;5026969;28;20129;-52
2023/12/02 01:27:01;;;;;;;34.25;14.20;;;0.10;99.90;;;;;;5031421;28;20033;-52
2023/12/02 01:29:27;;;;;;;28.48;13.05;;;0.20;99.90;;;;;;5029590;28;20045;-52
2023/12/02 01:31:53;;;;;;;30.75;12.82;;;-0.30;99.90;;;;;;5031730;28;20485;-53
2023/12/02 01:34:19;;;;;;;30.42;12.48;;;0.00;99.90;;;;;;5030870;28;20040;-50
2023/12/02 01:36:45;;;;;;;35.78;13.95;;;0.20;99.90;;;;;;5031467;28;20473;-50
2023/12/02 01:39:12;;;;;;;35.13;13.13;;;0.10;99.90;;;;;;5031630;28;20103;-50
2023/12/02 01:41:39;;;;;;;32.63;13.98;;;0.10;99.90;;;;;;5031731;28;20465;-54
2023/12/02 01:44:04;;;;;;;29.67;12.93;;;-0.30;99.90;;;;;;5031922;28;20095;-52
2023/12/02 01:46:30;;;;;;;35.22;13.27;;;0.10;99.90;;;;;;5029131;28;20449;-51
2023/12/02 01:48:58;;;;;;;32.00;12.75;;;-0.10;99.90;;;;;;5031609;28;20485;-50
2023/12/02 01:51:25;;;;;;;32.17;13.05;;;0.00;99.90;;;;;;5028419;28;20045;-52
2023/12/02 01:53:51;;;;;;;32.35;12.57;;;0.00;99.90;;;;;;5030126;28;20107;-52
2023/12/02 01:56:18;;;;;;;27.63;12.73;;;0.10;99.90;;;;;;5031104;28;20041;-53
2023/12/02 01:58:44;;;;;;;29.08;12.82;;;0.20;99.90;;;;;;5031299;28;20033;-50
2023/12/02 02:01:09;;;;;;;35.30;13.32;;;-0.30;99.90;;;;;;5031387;28;20086;-51
2023/12/02 02:03:35;;;;;;;30.60;12.63;;;-0.10;99.90;;;;;;5029416;28;20048;-52
2023/12/02 02:06:01;;;;;;;32.35;12.88;;;-0.20;99.90;;;;;;5030551;28;20037;-50
2023/12/02 02:08:27;;;;;;;31.40;12.93;;;-0.30;99.90;;;;;;5028488;28;20423;-50
2023/12/02 02:10:59;;;;;;;33.80;13.13;;;0.20;99.90;;;;;;5028054;28;20045;-50
2023/12/02 02:13:25;;;;;;;35.80;13.73;;;0.00;99.90;;;;;;5028852;28;20513;-51
2023/12/02 02:15:51;;;;;;;37.15;14.00;;;-0.20;99.90;;;;;;5031043;28;20554;-52
2023/12/02 02:18:16;;;;;;;37.85;14.02;;;-0.20;99.90;;;;;;5029825;28;20045;-51
2023/12/02 02:20:48;;;;;;;32.78;13.25;;;-0.20;99.90;;;;;;5028206;28;20492;-52
2023/12/02 02:23:14;;;;;;;31.30;12.93;;;-0.10;99.90;;;;;;5028961;28;20036;-52
2023/12/02 02:25:39;;;;;;;31.38;13.35;;;0.10;99.90;;;;;;5030329;28;20045;-51
2023/12/02 02:28:05;;;;;;;33.28;12.40;;;-0.20;99.90;;;;;;5030721;28;20296;-51
2023/12/02 02:30:31;;;;;;;29.38;13.43;;;0.20;99.90;;;;;;5030897;28;20037;-51
2023/12/02 02:32:56;;;;;;;36.40;14.60;;;-0.30;99.90;;;;;;5029496;28;20119;-52
2023/12/02 02:35:22;;;;;;;32.03;11.60;;;0.20;99.90;;;;;;5031207;28;20037;-52
2023/12/02 02:37:48;;;;;;;33.17;13.52;;;-0.20;99.90;;;;;;5031025;28;20366;-52
2023/12/02 02:40:14;;;;;;;34.15;13.10;;;0.20;99.90;;;;;;5029053;28;20026;-47
2023/12/02 02:42:40;;;;;;;30.05;13.20;;;0.20;99.90;;;;;;5030899;28;20088;-50
2023/12/02 02:45:06;;;;;;;35.03;13.30;;;-0.10;99.90;;;;;;5030172;28;20051;-52
2023/12/02 02:47:31;;;;;;;29.80;13.43;;;0.20;99.90;;;;;;5029002;28;20049;-50
2023/12/02 02:49:57;;;;;;;33.58;12.60;;;-0.30;99.90;;;;;;5030470;28;20486;-49
2023/12/02 02:52:23;;;;;;;32.97;12.90;;;-0.20;99.90;;;;;;5030412;28;20048;-54
2023/12/02 02:54:48;;;;;;;32.95;12.82;;;0.20;99.90;;;;;;5024051;28;20559;-50
2023/12/02 02:57:14;;;;;;;27.67;11.95;;;-0.10;99.90;;;;;;5029295;28;20116;-52
2023/12/02 02:59:40;;;;;;;35.10;12.80;;;0.00;99.90;;;;;;5030286;28;20091;-49
2023/12/02 03:02:05;;;;;;;33.55;13.27;;;-0.30;99.90;;;;;;5030510;28;20495;-54
2023/12/02 03:04:31;;;;;;;31.08;13.27;;;-0.10;99.90;;;;;;5029573;28;20050;-53
2023/12/02 03:06:57;;;;;;;32.50;12.32;;;0.10;99.90;;;;;;5029314;28;20115;-52
2023/12/02 03:09:22;;;;;;;30.42;12.70;;;0.20;99.90;;;;;;5029904;28;20115;-53
2023/12/02 03:11:50;;;;;;;31.58;12.73;;;0.10;99.90;;;;;;5030319;28;20067;-52
2023/12/02 03:14:16;;;;;;;28.35;11.98;;;0.20;99.90;;;;;;5030575;28;20049;-51
2023/12/02 03:16:41;;;;;;;31.55;13.10;;;-0.10;99.90;;;;;;5028514;28;20056;-50
2023/12/02 03:19:07;;;;;;;30.48;12.85;;;-0.10;99.90;;;;;;5030129;28;20037;-54
2023/12/02 03:21:33;;;;;;;29.50;13.10;;;-0.30;99.90;;;;;;5030538;28;20488;-49
2023/12/02 03:23:59;;;;;;;34.42;13.05;;;-0.20;99.90;;;;;;5030343;28;20041;-52
2023/12/02 03:26:26;;;;;;;34.08;14.55;;;0.10;99.90;;;;;;5030238;28;20473;-50
2023/12/02 03:28:52;;;;;;;30.40;12.63;;;0.10;99.90;;;;;;5027577;28;20041;-52
2023/12/02 03:31:18;;;;;;;35.83;13.63;;;0.10;99.90;;;;;;5029854;28;20040;-53
2023/12/02 03:33:44;;;;;;;31.23;13.35;;;-0.20;99.90;;;;;;5029678;28;20038;-49
2023/12/02 03:36:10;;;;;;;33.50;13.77;;;0.00;99.90;;;;;;5030102;28;20452;-52
2023/12/02 03:38:36;;;;;;;32.58;13.95;;;0.10;99.90;;;;;;5026925;28;20034;-52
2023/12/02 03:41:02;;;;;;;32.83;13.52;;;0.50;99.90;;;;;;5028651;28;20048;-53
2023/12/02 03:43:28;;;;;;;34.95;12.80;;;-0.30;99.90;;;;;;5029856;28;20512;-51
2023/12/02 03:45:55;;;;;;;32.22;13.32;;;-0.30;99.90;;;;;;5028943;28;20076;-52
2023/12/02 03:48:21;;;;;;;37.10;14.98;;;0.00;99.90;;;;;;5029333;28;20120;-49
2023/12/02 03:50:47;;;;;;;31.42;12.65;;;0.10;99.90;;;;;;5030419;28;20125;-50
2023/12/02 03:53:12;;;;;;;34.42;13.27;;;-0.30;99.90;;;;;;5029232;28;20050;-50
2023/12/02 03:55:38;;;;;;;29.65;12.23;;;0.00;99.90;;;;;;5029048;28;20456;-51
2023/12/02 03:58:04;;;;;;;36.25;14.05;;;-0.20;99.90;;;;;;5014487;28;20389;-52
2023/12/02 04:00:30;;;;;;;32.47;14.07;;;0.00;99.90;;;;;;5033635;28;20050;-51
2023/12/02 04:02:55;;;;;;;35.35;14.52;;;-0.40;99.90;;;;;;5033730;28;20080;-53
2023/12/02 04:05:21;;;;;;;41.50;13.98;;;-0.10;99.90;;;;;;5033592;28;20374;-50
2023/12/02 04:07:47;;;;;;;35.92;12.95;;;0.00;99.90;;;;;;5031260;28;20136;-52
2023/12/02 04:10:12;;;;;;;36.25;14.57;;;0.00;99.90;;;;;;5033829;28;20045;-49
2023/12/02 04:12:38;;;;;;;28.67;12.93;;;-0.40;99.90;;;;;;5032540;28;20063;-53
2023/12/02 04:15:06;;;;;;;32.85;12.52;;;0.00;99.90;;;;;;5030625;28;20124;-50
2023/12/02 04:17:32;;;;;;;35.42;13.63;;;-0.30;99.90;;;;;;5031576;28;20034;-52
2023/12/02 04:19:58;;;;;;;35.75;13.50;;;-0.30;99.90;;;;;;5033549;28;20504;-48
2023/12/02 04:22:24;;;;;;;32.53;13.10;;;-0.50;99.90;;;;;;5031577;28;20034;-53
2023/12/02 04:24:50;;;;;;;39.90;13.77;;;-0.40;99.90;;;;;;5028903;28;20052;-54
2023/12/02 04:27:16;;;;;;;32.05;13.00;;;-0.40;99.90;;;;;;5032807;28;20041;-51
2023/12/02 04:29:42;;;;;;;31.27;13.48;;;-0.60;99.90;;;;;;5030628;28;20358;-50
2023/12/02 04:32:08;;;;;;;34.33;12.75;;;-0.50;99.90;;;;;;5031570;28;20489;-51
2023/12/02 04:34:34;;;;;;;34.70;12.95;;;-0.60;99.90;;;;;;5032003;28;20125;-51
2023/12/02 04:37:01;;;;;;;35.08;14.35;;;-0.50;99.90;;;;;;5030795;28;20180;-52
2023/12/02 04:39:27;;;;;;;36.08;13.18;;;-0.10;99.90;;;;;;5032114;28;20042;-51
2023/12/02 04:41:53;;;;;;;34.17;12.93;;;-0.10;99.90;;;;;;5031811;28;20120;-53
2023/12/02 04:44:20;;;;;;;36.03;13.63;;;-0.30;99.90;;;;;;5032915;28;20072;-48
2023/12/02 04:46:46;;;;;;;35.35;13.27;;;-0.30;99.90;;;;;;5032602;28;20095;-50
2023/12/02 04:49:12;;;;;;;29.92;12.95;;;-0.60;99.90;;;;;;5032563;28;20045;-49
2023/12/02 04:51:38;;;;;;;36.83;13.25;;;-0.40;99.90;;;;;;5029877;28;20041;-51
2023/12/02 04:54:04;;;;;;;36.15;12.75;;;-0.50;99.90;;;;;;5032429;28;20037;-49
2023/12/02 04:56:30;;;;;;;31.98;13.00;;;0.30;99.90;;;;;;5032524;28;20056;-51
2023/12/02 04:58:56;;;;;;;33.97;12.68;;;-0.40;99.90;;;;;;5032575;28;20029;-49
2023/12/02 05:01:22;;;;;;;34.50;14.32;;;-0.60;99.90;;;;;;5030718;28;20116;-52
2023/12/02 05:03:48;;;;;;;39.25;15.07;;;-0.30;99.90;;;;;;5031722;28;20473;-45
2023/12/02 05:06:15;;;;;;;36.17;13.25;;;-0.60;99.90;;;;;;5032481;28;21091;-52
2023/12/02 05:08:41;;;;;;;38.70;14.63;;;-0.20;99.90;;;;;;5028718;28;20422;-49
2023/12/02 05:11:07;;;;;;;43.20;14.98;;;-0.60;99.90;;;;;;5030126;28;20448;-49
2023/12/02 05:13:33;;;;;;;38.95;13.77;;;-0.30;99.90;;;;;;5031890;28;20041;-48
2023/12/02 05:15:59;;;;;;;38.83;13.90;;;-0.30;99.90;;;;;;5031300;28;20041;-49
2023/12/02 05:18:24;;;;;;;35.08;14.93;;;-0.20;99.90;;;;;;5031701;28;20037;-46
2023/12/02 05:20:50;;;;;;;33.75;13.60;;;-0.50;99.90;;;;;;5028546;28;20056;-50
2023/12/02 05:23:16;;;;;;;35.80;14.70;;;-0.40;99.90;;;;;;5030033;28;20080;-51
2023/12/02 05:25:41;;;;;;;35.97;14.52;;;-0.20;99.90;;;;;;5031408;28;20041;-51
2023/12/02 05:28:07;;;;;;;33.05;13.90;;;-0.20;99.90;;;;;;5031155;28;20087;-53
2023/12/02 05:30:35;;;;;;;35.83;12.82;;;-0.50;99.90;;;;;;5030433;28;20488;-51
2023/12/02 05:33:01;;;;;;;34.65;13.68;;;-0.50;99.90;;;;;;5031469;28;20421;-52
2023/12/02 05:35:27;;;;;;;38.88;15.88;;;-0.20;99.90;;;;;;5030571;28;20037;-51
2023/12/02 05:37:53;;;;;;;36.33;14.55;;;-0.60;99.90;;;;;;5026855;28;20116;-48
2023/12/02 05:40:18;;;;;;;39.45;14.52;;;-0.20;99.90;;;;;;5030185;28;20045;-50
2023/12/02 05:42:44;;;;;;;31.40;13.13;;;-0.50;99.90;;;;;;5030680;28;20288;-51
2023/12/02 05:45:10;;;;;;;34.53;13.43;;;-0.30;99.90;;;;;;5031624;28;20041;-51
2023/12/02 05:47:36;;;;;;;36.65;14.43;;;-0.40;99.90;;;;;;5031352;28;20045;-54
2023/12/02 05:50:02;;;;;;;34.88;14.45;;;-0.60;99.90;;;;;;5031615;28;20048;-53
2023/12/02 05:52:28;;;;;;;33.08;14.05;;;-0.40;99.90;;;;;;5029304;28;20045;-49
2023/12/02 05:54:55;;;;;;;38.40;15.43;;;-0.50;99.90;;;;;;5026970;28;20037;-51
2023/12/02 05:57:20;;;;;;;38.65;15.50;;;-0.20;99.90;;;;;;5030895;28;20048;-50
2023/12/02 05:59:46;;;;;;;34.25;13.70;;;-0.60;99.90;;;;;;5030511;28;20033;-51
2023/12/02 06:02:12;;;;;;;38.83;14.93;;;-0.50;99.90;;;;;;5031458;28;20451;-51
2023/12/02 06:04:38;;;;;;;34.30;13.95;;;-0.40;99.90;;;;;;5031234;28;20475;-48
2023/12/02 06:07:03;;;;;;;39.72;13.60;;;-0.40;99.90;;;;;;5028698;28;20041;-49
2023/12/02 06:09:29;;;;;;;38.28;14.77;;;-0.20;99.90;;;;;;5031251;28;20151;-50
2023/12/02 06:11:55;;;;;;;33.45;13.75;;;-0.70;99.90;;;;;;5029562;28;20502;-51
2023/12/02 06:14:20;;;;;;;38.33;14.63;;;-0.40;99.90;;;;;;5031342;28;20045;-49
2023/12/02 06:16:46;;;;;;;35.60;13.43;;;-0.60;99.90;;;;;;5030745;28;20071;-49
2023/12/02 06:19:12;;;;;;;36.05;14.38;;;-0.20;99.90;;;;;;5030415;28;20049;-54
2023/12/02 06:21:38;;;;;;;33.83;14.05;;;-0.20;99.90;;;;;;5028013;28;20397;-52
2023/12/02 06:24:04;;;;;;;38.33;14.73;;;-0.10;99.90;;;;;;5030925;28;20043;-51
2023/12/02 06:26:29;;;;;;;33.55;12.63;;;-0.50;99.90;;;;;;5030679;28;20064;-52
2023/12/02 06:28:55;;;;;;;39.85;14.45;;;-0.50;99.90;;;;;;5030774;28;20041;-48
2023/12/02 06:31:21;;;;;;;35.17;13.15;;;-0.20;99.90;;;;;;5030969;28;20044;-50
2023/12/02 06:33:47;;;;;;;32.80;13.60;;;-0.60;99.90;;;;;;5028460;28;20033;-49
2023/12/02 06:36:13;;;;;;;31.83;13.25;;;-0.60;99.90;;;;;;5030516;28;20048;-51
2023/12/02 06:38:39;;;;;;;34.55;12.52;;;-0.60;99.90;;;;;;5027067;28;20045;-51
2023/12/02 06:41:05;;;;;;;34.70;13.00;;;-0.40;99.90;;;;;;5025417;28;20381;-49
2023/12/02 06:43:31;;;;;;;36.30;13.68;;;-0.20;99.90;;;;;;5013186;28;20037;-53
2023/12/02 06:45:56;;;;;;;39.67;13.07;;;-0.60;99.90;;;;;;5030669;28;20682;-54
2023/12/02 06:48:22;;;;;;;38.42;13.23;;;-0.30;99.90;;;;;;5029465;28;20037;-51
2023/12/02 06:50:48;;;;;;;37.60;13.52;;;-0.60;99.90;;;;;;5030790;28;20465;-52
2023/12/02 06:53:15;;;;;;;34.55;13.57;;;-0.30;99.90;;;;;;5030089;28;20037;-51
2023/12/02 06:55:45;;;;;;;39.05;13.95;;;-0.20;99.90;;;;;;5028133;28;20041;-48
2023/12/02 06:58:10;;;;;;;35.08;14.30;;;-0.50;99.90;;;;;;5028651;28;20038;-51
2023/12/02 07:00:36;;;;;;;32.90;12.30;;;-0.50;99.90;;;;;;5030685;28;20044;-50
2023/12/02 07:03:01;;;;;;;33.83;13.18;;;-0.20;99.90;;;;;;5028074;28;20061;-51
2023/12/02 07:05:27;;;;;;;38.42;13.55;;;-0.10;99.90;;;;;;5030643;28;20116;-50
2023/12/02 07:07:53;;;;;;;33.03;12.70;;;-0.60;99.90;;;;;;5029850;28;20058;-46
2023/12/02 07:10:19;;;;;;;34.70;13.13;;;-0.50;99.90;;;;;;5031008;28;20045;-52
2023/12/02 07:12:45;;;;;;;34.20;13.25;;;-0.30;99.90;;;;;;5030693;28;20195;-51
2023/12/02 07:15:11;;;;;;;35.80;12.98;;;-0.50;99.90;;;;;;5030513;28;20046;-50
2023/12/02 07:17:37;;;;;;;35.85;13.55;;;-0.30;99.90;;;;;;5029228;28;20045;-51
2023/12/02 07:20:03;;;;;;;28.23;12.25;;;-0.30;99.90;;;;;;5030539;28;20044;-51
2023/12/02 07:22:28;;;;;;;35.80;13.93;;;-0.30;99.90;;;;;;5029901;28;20503;-47
2023/12/02 07:24:54;;;;;;;34.58;12.18;;;-0.40;99.90;;;;;;5024304;28;20041;-51
2023/12/02 07:27:20;;;;;;;36.92;14.43;;;-0.70;99.90;;;;;;5030093;28;20041;-53
2023/12/02 07:29:46;;;;;;;36.10;13.30;;;-0.60;99.90;;;;;;5030646;28;20478;-50
2023/12/02 07:32:11;;;;;;;39.70;13.23;;;-0.30;99.90;;;;;;5033412;28;20030;-51
2023/12/02 07:34:37;;;;;;;36.05;13.90;;;-0.50;99.90;;;;;;5032479;28;20030;-50
2023/12/02 07:37:03;;;;;;;38.15;12.35;;;-0.70;99.90;;;;;;5033535;28;20080;-49
2023/12/02 07:39:29;;;;;;;38.38;13.98;;;-0.80;99.90;;;;;;5033007;28;20077;-52
2023/12/02 07:41:54;;;;;;;35.65;14.05;;;-0.30;99.90;;;;;;5033432;28;20041;-50
2023/12/02 07:44:20;;;;;;;33.15;14.00;;;-0.40;99.90;;;;;;5033461;28;20456;-51
2023/12/02 07:46:46;;;;;;;35.15;13.20;;;-0.50;99.90;;;;;;5022093;28;20041;-53
2023/12/02 07:49:12;;;;;;;35.08;13.98;;;-0.20;99.90;;;;;;5032402;28;20064;-53
2023/12/02 07:51:37;;;;;;;39.30;13.52;;;-0.80;99.90;;;;;;5033726;28;20111;-53
2023/12/02 07:54:03;;;;;;;34.50;13.18;;;-0.80;99.90;;;;;;5032872;28;20048;-50
2023/12/02 07:56:29;;;;;;;31.10;13.30;;;-0.70;99.90;;;;;;5033228;28;20056;-51
2023/12/02 07:58:55;;;;;;;32.53;12.38;;;-0.30;99.90;;;;;;5033539;28;20061;-52
2023/12/02 08:01:24;;;;;;;41.03;13.50;;;-0.60;99.90;;;;;;5015628;28;20087;-54
2023/12/02 08:03:50;;;;;;;36.72;12.75;;;-0.60;99.90;;;;;;5032221;28;20029;-51
2023/12/02 08:06:15;;;;;;;34.70;13.32;;;-0.70;99.90;;;;;;5033420;28;20047;-53
2023/12/02 08:08:41;;;;;;;38.47;14.05;;;-0.80;99.90;;;;;;5029181;28;20049;-55
2023/12/02 08:11:07;;;;;;;36.85;13.32;;;-0.70;99.90;;;;;;5032040;28;20530;-53
2023/12/02 08:13:33;;;;;;;36.22;13.00;;;-0.70;99.90;;;;;;5033497;28;20049;-53
2023/12/02 08:15:58;;;;;;;38.92;12.90;;;-0.60;99.90;;;;;;5033472;28;20040;-50
2023/12/02 08:18:24;;;;;;;36.53;13.95;;;-0.60;99.90;;;;;;5020813;28;20038;-51
2023/12/02 08:20:50;;;;;;;41.17;14.70;;;-0.20;99.90;;;;;;5024420;28;20045;-52
2023/12/02 08:23:15;;;;;;;38.55;15.00;;;-0.40;99.90;;;;;;5020150;28;20536;-53
2023/12/02 08:25:41;;;;;;;38.22;15.48;;;-0.20;99.90;;;;;;5021709;28;20500;-50
2023/12/02 08:28:07;;;;;;;44.53;14.88;;;-0.70;99.90;;;;;;5022400;28;20087;-50
2023/12/02 08:30:33;;;;;;;46.78;16.02;;;-0.30;99.90;;;;;;5025451;28;20116;-54
2023/12/02 08:32:59;;;;;;;40.95;15.05;;;-0.50;99.90;;;;;;5023962;28;20084;-53
2023/12/02 08:35:24;;;;;;;39.25;15.60;;;-0.10;99.90;;;;;;5023511;28;20049;-50
2023/12/02 08:37:50;;;;;;;42.85;14.95;;;-0.60;99.90;;;;;;5021045;28;20029;-52
2023/12/02 08:40:16;;;;;;;47.13;16.13;;;-0.10;99.90;;;;;;5006004;28;20037;-49
2023/12/02 08:42:41;;;;;;;38.53;15.48;;;-0.10;99.90;;;;;;5021523;28;20124;-49
2023/12/02 08:45:07;;;;;;;39.10;14.75;;;-0.30;99.90;;;;;;5023107;28;20041;-50
2023/12/02 08:47:33;;;;;;;45.30;16.30;;;-0.40;99.90;;;;;;5022135;28;20121;-49
2023/12/02 08:49:59;;;;;;;46.17;17.38;;;-0.60;99.90;;;;;;5022976;28;20120;-50
2023/12/02 08:52:24;;;;;;;47.50;16.08;;;-0.10;99.90;;;;;;5022893;28;20029;-51
2023/12/02 08:54:50;;;;;;;39.47;15.52;;;0.00;99.90;;;;;;5020529;28;20507;-52
2023/12/02 08:57:16;;;;;;;39.90;15.90;;;-0.30;99.90;;;;;;5023158;28;20048;-51
2023/12/02 08:59:41;;;;;;;50.05;17.58;;;-0.40;99.90;;;;;;5021221;28;20037;-51
2023/12/02 09:02:08;;;;;;;42.15;16.10;;;0.40;99.90;;;;;;5024019;28;20042;-51
2023/12/02 09:04:35;;;;;;;44.17;17.42;;;0.80;99.90;;;;;;5024605;28;20034;-53
2023/12/02 09:07:01;;;;;;;52.75;17.20;;;-0.20;99.90;;;;;;5022747;28;20116;-55
2023/12/02 09:09:27;;;;;;;45.90;17.15;;;-0.30;99.90;;;;;;5024639;28;20071;-51
2023/12/02 09:11:53;;;;;;;44.80;16.63;;;0.50;99.90;;;;;;5022979;28;20049;-51
2023/12/02 09:14:18;;;;;;;46.10;16.70;;;0.00;99.90;;;;;;5023168;28;20064;-52
2023/12/02 09:16:47;;;;;;;45.67;16.60;;;-0.20;99.90;;;;;;5023223;28;20041;-51
2023/12/02 09:19:30;;;;;;;50.13;16.27;;;0.00;99.90;;;;;;5024678;28;20088;-50
2023/12/02 09:21:56;;;;;;;50.47;15.63;;;-0.10;99.90;;;;;;5024552;28;20033;-50
2023/12/02 09:24:35;;;;;;;42.92;15.18;;;-0.10;99.90;;;;;;5023244;28;20032;-53
2023/12/02 09:27:05;;;;;;;45.58;15.18;;;0.30;99.90;;;;;;5020459;28;20041;-53
2023/12/02 09:29:43;;;;;;;49.03;17.40;;;0.40;99.90;;;;;;5012822;28;20049;-52
2023/12/02 09:32:37;;;;;;;47.80;15.68;;;-0.10;99.90;;;;;;5014672;28;20088;-51
2023/12/02 09:35:04;;;;;;;47.83;16.85;;;-0.10;99.90;;;;;;5015007;28;20029;-51
2023/12/02 09:38:08;;;;;;;43.65;16.17;;;-0.10;99.90;;;;;;5012523;28;20030;-54
2023/12/02 09:40:37;;;;;;;45.25;15.68;;;0.30;99.90;;;;;;4987490;28;20120;-52
2023/12/02 09:43:11;;;;;;;48.58;16.40;;;0.20;99.90;;;;;;5012703;28;20478;-53
2023/12/02 09:45:48;;;;;;;41.10;15.45;;;0.00;99.90;;;;;;5013172;28;20077;-51
2023/12/02 09:48:23;;;;;;;47.25;15.43;;;0.40;99.90;;;;;;5013742;28;20512;-52
2023/12/02 09:51:03;;;;;;;44.42;16.77;;;0.10;99.90;;;;;;5013258;28;20041;-54
2023/12/02 09:53:39;;;;;;;47.25;16.63;;;0.50;99.90;;;;;;5013941;28;20061;-52
2023/12/02 09:56:19;;;;;;;45.13;16.90;;;0.40;99.90;;;;;;5011875;28;20053;-53
2023/12/02 09:58:46;;;;;;;42.90;16.73;;;0.20;99.90;;;;;;5014810;28;20424;-47
2023/12/02 10:01:38;;;;;;;48.22;16.15;;;0.30;99.90;;;;;;5012549;28;20033;-51
2023/12/02 10:04:27;;;;;;;46.13;17.08;;;0.20;99.90;;;;;;5011771;28;20112;-51
2023/12/02 10:06:56;;;;;;;47.60;17.63;;;0.70;99.90;;;;;;5012358;28;20128;-52
2023/12/02 10:09:22;;;;;;;48.67;17.40;;;0.40;99.90;;;;;;5010947;28;20420;-52
2023/12/02 10:12:05;;;;;;;48.08;16.92;;;0.30;99.90;;;;;;5012985;28;20050;-53
2023/12/02 10:14:33;;;;;;;43.88;16.23;;;0.40;99.90;;;;;;5013847;28;20095;-52
2023/12/02 10:17:02;;;;;;;50.53;18.17;;;0.40;99.90;;;;;;5010413;28;20049;-50
2023/12/02 10:19:31;;;;;;;46.70;18.02;;;0.50;99.90;;;;;;5012214;28;20042;-50
2023/12/02 10:22:02;;;;;;;44.63;17.60;;;0.70;99.90;;;;;;5011012;28;20102;-53
2023/12/02 10:24:49;;;;;;;45.13;17.42;;;0.50;99.90;;;;;;5014679;28;20049;-51
2023/12/02 10:27:17;;;;;;;49.90;17.67;;;0.80;99.90;;;;;;5013326;28;20376;-49
2023/12/02 10:30:10;;;;;;;48.55;17.20;;;0.90;99.90;;;;;;5013678;28;20053;-49
2023/12/02 10:32:46;;;;;;;49.70;17.08;;;0.60;99.90;;;;;;5012978;28;20437;-52
2023/12/02 10:35:24;;;;;;;47.10;16.95;;;0.70;99.90;;;;;;5036255;28;20371;-53
2023/12/02 10:38:10;;;;;;;43.75;16.05;;;0.70;99.90;;;;;;5011275;28;20042;-52
2023/12/02 10:40:36;;;;;;;48.47;17.17;;;1.70;99.90;;;;;;5011790;28;20044;-53
2023/12/02 10:43:10;;;;;;;48.45;16.38;;;1.00;99.90;;;;;;5019650;28;20386;-52
2023/12/02 10:45:39;;;;;;;44.17;17.27;;;1.00;99.90;;;;;;5012107;28;20038;-50
2023/12/02 10:48:08;;;;;;;43.47;17.02;;;1.00;99.90;;;;;;5012326;28;20120;-50
2023/12/02 10:50:34;;;;;;;46.85;17.10;;;0.70;99.90;;;;;;5012771;28;20034;-53
2023/12/02 10:53:03;;;;;;;46.50;16.38;;;0.70;99.90;;;;;;5010334;28;20037;-53
2023/12/02 10:55:31;;;;;;;46.28;16.35;;;0.80;99.90;;;;;;5011248;28;20042;-53
2023/12/02 10:57:59;;;;;;;48.28;17.10;;;1.00;99.90;;;;;;5037968;28;20049;-49
2023/12/02 11:00:30;;;;;;;45.53;17.50;;;1.30;99.90;;;;;;5013873;28;20037;-53
2023/12/02 11:02:55;;;;;;;48.65;16.42;;;1.10;99.90;;;;;;5014924;28;20033;-52
2023/12/02 11:05:23;;;;;;;46.15;17.55;;;1.30;99.90;;;;;;5015252;28;20045;-51
2023/12/02 11:07:53;;;;;;;46.08;16.73;;;1.00;99.90;;;;;;5017123;28;20041;-48
2023/12/02 11:10:48;;;;;;;47.97;16.98;;;1.30;99.90;;;;;;5023958;28;20037;-47
2023/12/02 11:13:23;;;;;;;44.55;16.42;;;1.10;99.90;;;;;;5031822;28;20053;-52
2023/12/02 11:16:07;;;;;;;47.30;17.85;;;1.20;99.90;;;;;;5033053;28;20037;-51
2023/12/02 11:19:08;;;;;;;46.03;16.77;;;1.00;99.90;;;;;;5031942;28;20040;-49
2023/12/02 11:21:43;;;;;;;49.20;17.48;;;1.10;99.90;;;;;;5025026;28;20128;-50
2023/12/02 11:24:27;;;;;;;55.22;17.40;;;1.50;99.90;;;;;;5025308;28;20037;-50
2023/12/02 11:27:04;;;;;;;46.42;17.60;;;1.10;99.90;;;;;;5029917;28;20049;-51
2023/12/02 11:30:07;;;;;;;54.35;17.42;;;1.50;99.90;;;;;;5028982;28;20049;-47
2023/12/02 11:32:52;;;;;;;50.28;17.15;;;1.40;99.90;;;;;;5030355;28;20044;-52
2023/12/02 11:35:25;;;;;;;47.90;17.63;;;1.20;99.90;;;;;;5031248;28;20042;-52
2023/12/02 11:38:00;;;;;;;51.42;19.20;;;1.60;99.90;;;;;;5029905;28;20036;-52
2023/12/02 11:40:29;;;;;;;54.10;18.73;;;1.20;99.90;;;;;;5025698;28;20041;-52
2023/12/02 11:43:16;;;;;;;46.33;18.25;;;1.40;99.90;;;;;;5031272;28;20038;-48
2023/12/02 11:45:54;;;;;;;46.35;17.38;;;1.30;99.90;;;;;;5011776;28;20058;-47
2023/12/02 11:48:42;;;;;;;49.05;18.63;;;1.60;99.90;;;;;;5029145;28;20046;-50
2023/12/02 11:51:36;;;;;;;52.42;18.55;;;1.30;99.90;;;;;;5030240;28;20060;-55
2023/12/02 11:54:31;;;;;;;53.88;18.88;;;1.50;99.90;;;;;;5032948;28;20041;-52
2023/12/02 11:57:08;;;;;;;;;;;1.70;99.90;;;;;;5004584;28;20099;-50
2023/12/02 11:59:54;;;;;;;45.67;16.02;;;1.70;99.90;;;;;;5032352;28;19917;-51
2023/12/02 12:02:34;;;;;;;50.78;17.77;;;1.80;99.90;;;;;;5032670;28;20068;-53
2023/12/02 12:05:18;;;;;;;51.70;17.55;;;1.50;99.90;;;;;;5032949;28;20108;-49
2023/12/02 12:08:02;;;;;;;46.85;17.58;;;1.90;99.90;;;;;;5030763;28;20033;-52
2023/12/02 12:10:28;;;;;;;57.72;17.55;;;1.50;99.90;;;;;;5033527;28;20049;-53
2023/12/02 12:12:56;;;;;;;54.92;18.42;;;1.60;99.90;;;;;;5020875;28;20468;-52
2023/12/02 12:15:22;;;;;;;51.38;18.15;;;1.90;99.90;;;;;;5033069;28;20045;-52
2023/12/02 12:17:47;;;;;;;50.67;18.67;;;2.00;99.90;;;;;;5032331;28;20029;-49
2023/12/02 12:20:18;;;;;;;52.25;17.50;;;1.60;99.90;;;;;;5028900;28;20144;-52
2023/12/02 12:22:44;;;;;;;49.40;17.30;;;2.00;99.90;;;;;;5032947;28;20480;-51
2023/12/02 12:25:10;;;;;;;50.78;18.45;;;2.00;99.90;;;;;;5034107;28;20041;-50
2023/12/02 12:27:36;;;;;;;50.60;18.40;;;1.60;99.90;;;;;;5035228;28;21145;-50
2023/12/02 12:30:01;;;;;;;53.38;18.95;;;2.40;99.90;;;;;;5035334;28;20029;-52
2023/12/02 12:32:28;;;;;;;56.20;19.92;;;1.60;99.90;;;;;;5028987;28;20042;-53
2023/12/02 12:34:54;;;;;;;47.35;16.77;;;1.60;99.90;;;;;;5031365;28;20060;-52
2023/12/02 12:37:19;;;;;;;52.97;19.27;;;1.80;99.90;;;;;;5029808;28;20029;-54